createdAt,value
2022-08-08T00:01:10.331Z,66
2022-08-08T00:02:48.284Z,66
2022-08-08T00:03:55.527Z,66
2022-08-08T00:04:59.714Z,66
2022-08-08T00:06:05.914Z,66
2022-08-08T00:07:13.821Z,66
2022-08-08T00:08:18.358Z,66
2022-08-08T00:09:20.649Z,66
2022-08-08T00:10:29.594Z,65
2022-08-08T00:12:11.443Z,66
2022-08-08T00:15:00.511Z,65
2022-08-08T00:16:10.631Z,65
2022-08-08T00:17:25.103Z,65
2022-08-08T00:19:09.017Z,65
2022-08-08T00:20:15.841Z,65
2022-08-08T00:21:29.991Z,65
2022-08-08T00:22:52.627Z,65
2022-08-08T00:23:55.834Z,65
2022-08-08T00:25:03.431Z,65
2022-08-08T00:26:26.577Z,65
2022-08-08T00:27:37.720Z,65
2022-08-08T00:28:45.204Z,65
2022-08-08T00:29:48.076Z,65
2022-08-08T00:32:38.908Z,65
2022-08-08T00:34:21.167Z,65
2022-08-08T00:35:39.125Z,65
2022-08-08T00:37:08.262Z,65
2022-08-08T00:41:15.946Z,65
2022-08-08T00:43:21.353Z,64
2022-08-08T00:45:27.315Z,65
2022-08-08T00:46:59.867Z,65
2022-08-08T00:48:34.309Z,65
2022-08-08T00:49:59.634Z,65
2022-08-08T00:51:03.237Z,65
2022-08-08T00:52:24.772Z,65
2022-08-08T00:54:18.179Z,65
2022-08-08T00:55:59.612Z,64
2022-08-08T00:57:04.649Z,64
2022-08-08T00:58:15.642Z,64
2022-08-08T00:59:47.624Z,64
2022-08-08T01:00:59.221Z,64
2022-08-08T01:04:05.642Z,64
2022-08-08T01:06:02.940Z,64
2022-08-08T01:07:11.477Z,64
2022-08-08T01:08:30.258Z,64
2022-08-08T01:09:49.033Z,64
2022-08-08T01:10:53.577Z,64
2022-08-08T01:11:56.419Z,64
2022-08-08T01:13:01.653Z,64
2022-08-08T01:14:08.912Z,64
2022-08-08T01:16:01.996Z,65
2022-08-08T01:17:05.955Z,65
2022-08-08T01:18:55.415Z,65
2022-08-08T01:20:06.758Z,66
2022-08-08T01:22:34.763Z,66
2022-08-08T01:24:19.125Z,66
2022-08-08T01:25:44.130Z,66
2022-08-08T01:26:56.982Z,66
2022-08-08T01:28:02.814Z,66
2022-08-08T01:29:06.377Z,66
2022-08-08T01:30:10.389Z,66
2022-08-08T01:32:21.674Z,66
2022-08-08T01:34:02.064Z,67
2022-08-08T01:35:13.610Z,67
2022-08-08T01:36:17.757Z,67
2022-08-08T01:37:59.665Z,67
2022-08-08T01:39:05.507Z,67
2022-08-08T01:40:16.612Z,67
2022-08-08T01:41:24.287Z,67
2022-08-08T01:42:41.583Z,67
2022-08-08T01:43:44.967Z,67
2022-08-08T01:44:55.505Z,67
2022-08-08T01:46:00.602Z,67
2022-08-08T01:48:32.041Z,67
2022-08-08T01:49:39.966Z,67
2022-08-08T01:50:52.042Z,68
2022-08-08T01:55:46.376Z,68
2022-08-08T01:58:14.640Z,67
2022-08-08T01:59:20.782Z,67
2022-08-08T02:00:28.410Z,68
2022-08-08T02:02:09.776Z,68
2022-08-08T02:03:59.411Z,68
2022-08-08T02:05:07.537Z,68
2022-08-08T02:06:44.058Z,68
2022-08-08T02:07:53.162Z,68
2022-08-08T02:08:57.294Z,68
2022-08-08T02:10:36.978Z,68
2022-08-08T02:12:04.154Z,69
2022-08-08T02:13:56.611Z,69
2022-08-08T02:15:03.343Z,69
2022-08-08T02:16:07.348Z,69
2022-08-08T02:17:25.589Z,69
2022-08-08T02:18:59.433Z,69
2022-08-08T02:21:21.603Z,69
2022-08-08T02:22:33.063Z,69
2022-08-08T02:23:59.603Z,69
2022-08-08T02:25:17.170Z,69
2022-08-08T02:26:22.848Z,69
2022-08-08T02:27:43.767Z,69
2022-08-08T02:28:53.043Z,69
2022-08-08T02:29:58.017Z,69
2022-08-08T02:32:01.334Z,70
2022-08-08T02:33:22.821Z,70
2022-08-08T02:36:16.401Z,70
2022-08-08T02:37:59.423Z,69
2022-08-08T02:40:01.991Z,69
2022-08-08T02:42:11.352Z,69
2022-08-08T02:44:59.785Z,69
2022-08-08T02:46:23.544Z,70
2022-08-08T02:47:32.712Z,70
2022-08-08T02:48:48.528Z,70
2022-08-08T02:49:53.187Z,70
2022-08-08T02:50:58.133Z,70
2022-08-08T02:52:52.363Z,70
2022-08-08T02:54:00.775Z,70
2022-08-08T02:55:04.478Z,70
2022-08-08T02:56:24.494Z,70
2022-08-08T02:57:52.231Z,70
2022-08-08T02:58:55.909Z,70
2022-08-08T03:00:37.065Z,70
2022-08-08T03:01:54.276Z,70
2022-08-08T03:03:01.438Z,71
2022-08-08T03:05:11.760Z,71
2022-08-08T03:06:36.372Z,71
2022-08-08T03:08:00.168Z,71
2022-08-08T03:09:05.877Z,71
2022-08-08T03:10:44.570Z,71
2022-08-08T03:12:14.453Z,71
2022-08-08T03:16:07.968Z,71
2022-08-08T03:17:41.256Z,72
2022-08-08T03:19:11.400Z,72
2022-08-08T03:20:24.924Z,72
2022-08-08T03:22:00.704Z,72
2022-08-08T03:23:07.529Z,72
2022-08-08T03:24:10.792Z,72
2022-08-08T03:25:37.051Z,72
2022-08-08T03:26:44.256Z,72
2022-08-08T03:27:58.325Z,72
2022-08-08T03:29:38.309Z,72
2022-08-08T03:31:52.734Z,73
2022-08-08T03:34:01.903Z,73
2022-08-08T03:35:17.126Z,73
2022-08-08T03:36:33.775Z,73
2022-08-08T03:39:16.807Z,73
2022-08-08T03:40:33.351Z,73
2022-08-08T03:42:31.320Z,73
2022-08-08T03:43:44.383Z,74
2022-08-08T03:44:55.803Z,74
2022-08-08T03:46:10.154Z,74
2022-08-08T03:47:25.251Z,74
2022-08-08T03:50:02.862Z,74
2022-08-08T03:51:07.268Z,74
2022-08-08T03:52:15.383Z,74
2022-08-08T03:53:48.505Z,74
2022-08-08T03:56:09.561Z,74
2022-08-08T03:58:48.154Z,74
2022-08-08T04:00:19.507Z,74
2022-08-08T04:02:51.976Z,74
2022-08-08T04:04:03.363Z,74
2022-08-08T04:05:11.324Z,75
2022-08-08T04:06:32.333Z,75
2022-08-08T04:07:37.201Z,75
2022-08-08T04:08:46.624Z,75
2022-08-08T04:10:10.559Z,75
2022-08-08T04:11:26.250Z,75
2022-08-08T04:13:21.437Z,75
2022-08-08T04:14:37.480Z,75
2022-08-08T04:16:08.954Z,75
2022-08-08T04:18:02.817Z,75
2022-08-08T04:19:26.956Z,75
2022-08-08T04:20:42.197Z,75
2022-08-08T04:21:48.962Z,75
2022-08-08T04:22:59.052Z,75
2022-08-08T04:24:32.184Z,75
2022-08-08T04:25:41.453Z,76
2022-08-08T04:27:00.750Z,76
2022-08-08T04:28:43.534Z,76
2022-08-08T04:30:20.597Z,76
2022-08-08T04:32:01.257Z,76
2022-08-08T04:33:15.411Z,76
2022-08-08T04:34:29.131Z,76
2022-08-08T04:36:05.342Z,76
2022-08-08T04:37:08.433Z,75
2022-08-08T04:38:24.746Z,75
2022-08-08T04:40:13.211Z,75
2022-08-08T04:41:22.868Z,75
2022-08-08T04:42:26.955Z,75
2022-08-08T04:43:57.730Z,75
2022-08-08T04:45:01.724Z,75
2022-08-08T04:46:04.234Z,75
2022-08-08T04:47:13.396Z,75
2022-08-08T04:48:22.415Z,75
2022-08-08T04:50:06.434Z,75
2022-08-08T04:51:59.795Z,75
2022-08-08T04:54:42.916Z,74
2022-08-08T04:55:57.848Z,74
2022-08-08T04:57:01.699Z,74
2022-08-08T04:58:13.363Z,74
2022-08-08T04:59:42.655Z,74
2022-08-08T05:00:52.868Z,74
2022-08-08T05:02:02.532Z,74
2022-08-08T05:04:08.818Z,74
2022-08-08T05:05:53.873Z,74
2022-08-08T05:07:16.193Z,74
2022-08-08T05:08:28.754Z,74
2022-08-08T05:09:39.469Z,74
2022-08-08T05:10:46.546Z,74
2022-08-08T05:11:58.270Z,73
2022-08-08T05:13:18.079Z,73
2022-08-08T05:14:25.185Z,73
2022-08-08T05:17:10.745Z,73
2022-08-08T05:18:27.842Z,73
2022-08-08T05:20:16.320Z,73
2022-08-08T05:21:23.473Z,73
2022-08-08T05:23:02.592Z,72
2022-08-08T05:24:11.354Z,72
2022-08-08T05:25:16.126Z,72
2022-08-08T05:26:28.387Z,72
2022-08-08T05:27:45.370Z,72
2022-08-08T05:29:07.098Z,71
2022-08-08T05:30:14.490Z,71
2022-08-08T05:32:08.568Z,71
2022-08-08T05:33:18.608Z,70
2022-08-08T05:34:27.755Z,70
2022-08-08T05:35:39.993Z,70
2022-08-08T05:36:46.559Z,70
2022-08-08T05:37:59.974Z,69
2022-08-08T05:39:03.397Z,69
2022-08-08T05:40:17.419Z,68
2022-08-08T05:41:56.415Z,68
2022-08-08T05:43:02.847Z,67
2022-08-08T05:46:03.162Z,66
2022-08-08T05:47:22.001Z,65
2022-08-08T05:48:37.593Z,65
2022-08-08T05:49:56.902Z,64
2022-08-08T05:51:18.147Z,64
2022-08-08T05:52:39.541Z,62
2022-08-08T05:55:02.240Z,62
2022-08-08T05:56:20.070Z,58
2022-08-08T05:58:31.924Z,58
2022-08-08T06:00:26.643Z,57
2022-08-08T06:02:01.068Z,56
2022-08-08T06:03:04.853Z,56
2022-08-08T06:04:24.630Z,56
2022-08-08T06:05:37.495Z,57
2022-08-08T06:06:50.591Z,57
2022-08-08T06:08:35.619Z,56
2022-08-08T06:10:06.631Z,55
2022-08-08T06:11:30.382Z,55
2022-08-08T06:12:34.155Z,55
2022-08-08T06:13:50.490Z,55
2022-08-08T06:14:58.868Z,54
2022-08-08T06:16:08.005Z,55
2022-08-08T06:17:50.701Z,55
2022-08-08T06:19:35.898Z,56
2022-08-08T06:20:55.485Z,56
2022-08-08T06:22:32.643Z,56
2022-08-08T06:24:27.207Z,56
2022-08-08T06:26:53.377Z,56
2022-08-08T06:27:57.542Z,56
2022-08-08T06:29:59.666Z,56
2022-08-08T06:31:16.084Z,57
2022-08-08T06:32:27.818Z,57
2022-08-08T06:34:29.159Z,58
2022-08-08T06:36:10.713Z,58
2022-08-08T06:37:43.425Z,58
2022-08-08T06:38:57.244Z,58
2022-08-08T06:40:17.631Z,58
2022-08-08T06:41:23.196Z,58
2022-08-08T06:42:36.716Z,58
2022-08-08T06:43:39.073Z,58
2022-08-08T06:44:45.004Z,58
2022-08-08T06:45:50.158Z,58
2022-08-08T06:46:55.481Z,58
2022-08-08T06:48:06.627Z,58
2022-08-08T06:49:15.568Z,58
2022-08-08T06:50:38.999Z,58
2022-08-08T06:51:58.683Z,58
2022-08-08T06:53:14.433Z,58
2022-08-08T06:54:25.283Z,59
2022-08-08T06:55:43.890Z,59
2022-08-08T06:57:15.556Z,59
2022-08-08T06:58:21.289Z,59
2022-08-08T06:59:23.822Z,59
2022-08-08T07:02:32.809Z,58
2022-08-08T07:04:52.944Z,58
2022-08-08T07:06:03.838Z,58
2022-08-08T07:07:13.499Z,58
2022-08-08T07:08:20.163Z,58
2022-08-08T07:10:01.592Z,58
2022-08-08T07:11:25.155Z,57
2022-08-08T07:12:56.139Z,57
2022-08-08T07:14:02.799Z,56
2022-08-08T07:15:23.215Z,56
2022-08-08T07:17:22.727Z,56
2022-08-08T07:19:46.874Z,56
2022-08-08T07:20:52.374Z,55
2022-08-08T07:22:19.919Z,55
2022-08-08T07:24:03.434Z,54
2022-08-08T07:25:08.109Z,54
2022-08-08T07:26:12.320Z,54
2022-08-08T07:28:08.711Z,54
2022-08-08T07:30:25.473Z,53
2022-08-08T07:31:37.248Z,53
2022-08-08T07:32:42.113Z,53
2022-08-08T07:34:01.980Z,52
2022-08-08T07:35:14.759Z,51
2022-08-08T07:36:21.734Z,51
2022-08-08T07:38:25.686Z,51
2022-08-08T07:40:02.319Z,50
2022-08-08T07:41:08.997Z,49
2022-08-08T07:42:36.729Z,49
2022-08-08T07:43:41.663Z,49
2022-08-08T07:44:56.654Z,49
2022-08-08T07:46:31.585Z,49
2022-08-08T07:47:49.409Z,49
2022-08-08T07:48:55.346Z,49
2022-08-08T07:49:59.723Z,49
2022-08-08T07:51:05.749Z,49
2022-08-08T07:52:56.516Z,48
2022-08-08T07:54:04.871Z,49
2022-08-08T07:55:09.766Z,48
2022-08-08T07:56:15.840Z,48
2022-08-08T07:57:50.709Z,49
2022-08-08T07:58:55.648Z,49
2022-08-08T08:00:03.175Z,48
2022-08-08T08:01:10.569Z,48
2022-08-08T08:02:41.982Z,49
2022-08-08T08:03:51.701Z,49
2022-08-08T08:05:00.097Z,48
2022-08-08T08:06:05.879Z,49
2022-08-08T08:07:08.900Z,49
2022-08-08T08:08:14.673Z,49
2022-08-08T08:09:23.146Z,49
2022-08-08T08:10:51.299Z,49
2022-08-08T08:11:57.029Z,48
2022-08-08T08:13:02.287Z,48
2022-08-08T08:14:20.061Z,48
2022-08-08T08:15:24.951Z,48
2022-08-08T08:16:27.518Z,48
2022-08-08T08:17:58.044Z,48
2022-08-08T08:19:01.454Z,48
2022-08-08T08:20:04.466Z,48
2022-08-08T08:21:19.686Z,48
2022-08-08T08:23:09.722Z,47
2022-08-08T08:24:18.998Z,47
2022-08-08T08:26:00.572Z,47
2022-08-08T08:27:10.619Z,47
2022-08-08T08:28:26.497Z,46
2022-08-08T08:29:30.797Z,46
2022-08-08T08:30:35.223Z,45
2022-08-08T08:31:43.603Z,46
2022-08-08T08:33:12.556Z,46
2022-08-08T08:34:16.085Z,47
2022-08-08T08:36:28.079Z,47
2022-08-08T08:38:19.022Z,46
2022-08-08T08:40:03.231Z,46
2022-08-08T08:41:24.394Z,46
2022-08-08T08:42:37.344Z,46
2022-08-08T08:43:46.195Z,45
2022-08-08T08:44:51.575Z,45
2022-08-08T08:46:06.061Z,45
2022-08-08T08:47:13.533Z,45
2022-08-08T08:48:25.703Z,44
2022-08-08T08:49:35.390Z,44
2022-08-08T08:50:46.065Z,43
2022-08-08T08:51:53.086Z,44
2022-08-08T08:54:01.341Z,43
2022-08-08T08:55:06.890Z,43
2022-08-08T08:56:14.350Z,43
2022-08-08T08:57:35.013Z,43
2022-08-08T08:58:41.465Z,43
2022-08-08T09:00:19.577Z,43
2022-08-08T09:01:28.081Z,43
2022-08-08T09:02:34.686Z,43
2022-08-08T09:03:52.513Z,42
2022-08-08T09:04:59.050Z,43
2022-08-08T09:06:01.686Z,42
2022-08-08T09:07:14.693Z,42
2022-08-08T09:08:23.571Z,42
2022-08-08T09:09:58.842Z,41
2022-08-08T09:11:09.346Z,41
2022-08-08T09:12:12.328Z,41
2022-08-08T09:13:28.348Z,41
2022-08-08T09:14:34.365Z,41
2022-08-08T09:15:47.517Z,41
2022-08-08T09:17:56.255Z,41
2022-08-08T09:19:11.024Z,42
2022-08-08T09:22:08.081Z,41
2022-08-08T09:23:26.219Z,40
2022-08-08T09:24:45.469Z,40
2022-08-08T09:26:04.202Z,39
2022-08-08T09:27:22.205Z,39
2022-08-08T09:29:10.294Z,39
2022-08-08T09:30:23.747Z,39
2022-08-08T09:31:57.990Z,39
2022-08-08T09:34:35.273Z,39
2022-08-08T09:35:57.104Z,40
2022-08-08T09:38:06.428Z,40
2022-08-08T09:39:21.919Z,40
2022-08-08T09:40:57.937Z,40
2022-08-08T09:42:26.319Z,40
2022-08-08T09:44:29.665Z,39
2022-08-08T09:46:11.118Z,39
2022-08-08T09:48:39.115Z,40
2022-08-08T09:50:11.619Z,40
2022-08-08T09:51:17.573Z,40
2022-08-08T09:53:33.058Z,40
2022-08-08T09:56:27.641Z,39
2022-08-08T09:57:56.401Z,39
2022-08-08T10:00:43.520Z,39
2022-08-08T10:02:16.621Z,39
2022-08-08T10:03:22.545Z,38
2022-08-08T10:04:53.144Z,38
2022-08-08T10:06:02.358Z,37
2022-08-08T10:07:16.394Z,37
2022-08-08T10:08:25.544Z,36
2022-08-08T10:10:07.321Z,37
2022-08-08T10:12:53.459Z,36
2022-08-08T10:14:40.252Z,36
2022-08-08T10:16:05.613Z,36
2022-08-08T10:18:25.648Z,35
2022-08-08T10:20:01.256Z,35
2022-08-08T10:21:50.175Z,35
2022-08-08T10:22:56.349Z,36
2022-08-08T10:24:00.950Z,36
2022-08-08T10:25:05.999Z,36
2022-08-08T10:27:00.330Z,36
2022-08-08T10:28:05.497Z,36
2022-08-08T10:29:23.139Z,36
2022-08-08T10:31:04.641Z,37
2022-08-08T10:32:14.378Z,37
2022-08-08T10:34:21.104Z,37
2022-08-08T10:36:23.643Z,37
2022-08-08T10:37:36.686Z,37
2022-08-08T10:38:47.087Z,37
2022-08-08T10:39:56.310Z,37
2022-08-08T10:40:59.519Z,37
2022-08-08T10:42:21.215Z,37
2022-08-08T10:43:37.424Z,37
2022-08-08T10:44:54.961Z,37
2022-08-08T10:46:00.781Z,36
2022-08-08T10:47:56.290Z,36
2022-08-08T10:49:02.914Z,36
2022-08-08T10:50:07.784Z,36
2022-08-08T10:51:10.823Z,37
2022-08-08T10:52:16.683Z,37
2022-08-08T10:54:03.286Z,36
2022-08-08T10:55:09.269Z,36
2022-08-08T10:56:36.464Z,36
2022-08-08T10:57:55.825Z,35
2022-08-08T10:58:58.933Z,35
2022-08-08T11:00:01.263Z,35
2022-08-08T11:01:16.286Z,35
2022-08-08T11:02:29.330Z,35
2022-08-08T11:04:05.579Z,36
2022-08-08T11:05:23.457Z,36
2022-08-08T11:06:26.115Z,35
2022-08-08T11:08:54.007Z,35
2022-08-08T11:09:56.808Z,35
2022-08-08T11:12:14.601Z,34
2022-08-08T11:13:34.242Z,34
2022-08-08T11:14:43.508Z,34
2022-08-08T11:16:34.517Z,34
2022-08-08T11:18:03.142Z,35
2022-08-08T11:19:19.551Z,34
2022-08-08T11:20:29.269Z,34
2022-08-08T11:21:38.235Z,34
2022-08-08T11:22:42.117Z,33
2022-08-08T11:24:03.866Z,34
2022-08-08T11:25:17.486Z,34
2022-08-08T11:26:59.936Z,34
2022-08-08T11:28:42.393Z,34
2022-08-08T11:30:32.377Z,34
2022-08-08T11:31:50.197Z,34
2022-08-08T11:32:54.851Z,34
2022-08-08T11:35:09.867Z,34
2022-08-08T11:36:51.740Z,34
2022-08-08T11:38:56.700Z,34
2022-08-08T11:40:01.548Z,33
2022-08-08T11:41:06.199Z,33
2022-08-08T11:42:10.797Z,33
2022-08-08T11:43:15.066Z,33
2022-08-08T11:44:30.471Z,33
2022-08-08T11:46:18.681Z,33
2022-08-08T11:48:10.132Z,33
2022-08-08T11:49:31.741Z,33
2022-08-08T11:50:34.787Z,34
2022-08-08T11:51:54.709Z,34
2022-08-08T11:53:00.077Z,34
2022-08-08T11:54:44.748Z,34
2022-08-08T11:55:50.954Z,34
2022-08-08T11:56:59.251Z,35
2022-08-08T11:58:31.326Z,35
2022-08-08T12:00:07.303Z,36
2022-08-08T12:01:21.350Z,35
2022-08-08T12:02:35.979Z,36
2022-08-08T12:03:48.337Z,36
2022-08-08T12:04:51.907Z,36
2022-08-08T12:05:54.754Z,36
2022-08-08T12:07:14.407Z,35
2022-08-08T12:08:30.285Z,35
2022-08-08T12:10:11.333Z,35
2022-08-08T12:11:31.244Z,35
2022-08-08T12:12:52.106Z,35
2022-08-08T12:14:10.942Z,35
2022-08-08T12:15:14.784Z,35
2022-08-08T12:16:17.859Z,35
2022-08-08T12:17:22.340Z,35
2022-08-08T12:18:41.165Z,35
2022-08-08T12:19:55.162Z,35
2022-08-08T12:21:01.109Z,35
2022-08-08T12:22:21.367Z,35
2022-08-08T12:24:03.468Z,35
2022-08-08T12:25:10.675Z,35
2022-08-08T12:26:36.930Z,35
2022-08-08T12:27:49.305Z,35
2022-08-08T12:28:54.341Z,35
2022-08-08T12:30:02.382Z,35
2022-08-08T12:31:54.578Z,35
2022-08-08T12:32:58.801Z,35
2022-08-08T12:34:05.476Z,34
2022-08-08T12:35:19.148Z,34
2022-08-08T12:36:35.486Z,35
2022-08-08T12:38:03.169Z,35
2022-08-08T12:39:10.883Z,35
2022-08-08T12:40:26.109Z,35
2022-08-08T12:42:05.523Z,34
2022-08-08T12:44:02.842Z,34
2022-08-08T12:46:04.399Z,34
2022-08-08T12:47:25.856Z,34
2022-08-08T12:49:46.619Z,33
2022-08-08T12:50:50.694Z,33
2022-08-08T12:52:01.945Z,33
2022-08-08T12:53:04.644Z,33
2022-08-08T12:54:26.915Z,33
2022-08-08T12:56:24.422Z,33
2022-08-08T12:57:57.503Z,34
2022-08-08T12:59:00.544Z,33
2022-08-08T13:00:20.989Z,33
2022-08-08T13:01:49.812Z,34
2022-08-08T13:03:01.810Z,34
2022-08-08T13:04:05.647Z,34
2022-08-08T13:06:14.028Z,35
2022-08-08T13:08:06.372Z,35
2022-08-08T13:09:12.026Z,35
2022-08-08T13:10:28.628Z,35
2022-08-08T13:12:31.160Z,35
2022-08-08T13:13:39.792Z,34
2022-08-08T13:14:54.774Z,34
2022-08-08T13:15:58.264Z,34
2022-08-08T13:17:02.088Z,34
2022-08-08T13:18:27.279Z,34
2022-08-08T13:20:09.596Z,34
2022-08-08T13:21:17.453Z,34
2022-08-08T13:22:26.222Z,34
2022-08-08T13:23:49.607Z,34
2022-08-08T13:25:01.051Z,34
2022-08-08T13:26:16.137Z,33
2022-08-08T13:27:22.803Z,33
2022-08-08T13:28:49.788Z,32
2022-08-08T13:29:54.154Z,33
2022-08-08T13:30:57.621Z,32
2022-08-08T13:32:02.972Z,32
2022-08-08T13:33:06.464Z,32
2022-08-08T13:34:36.423Z,32
2022-08-08T13:35:51.425Z,31
2022-08-08T13:36:59.600Z,31
2022-08-08T13:38:14.122Z,31
2022-08-08T13:39:22.096Z,31
2022-08-08T13:40:29.124Z,31
2022-08-08T13:42:01.772Z,31
2022-08-08T13:43:05.409Z,32
2022-08-08T13:44:12.662Z,32
2022-08-08T13:45:27.538Z,32
2022-08-08T13:46:33.668Z,32
2022-08-08T13:47:36.817Z,31
2022-08-08T13:50:34.187Z,31
2022-08-08T13:52:51.311Z,32
2022-08-08T13:54:02.410Z,32
2022-08-08T13:55:06.884Z,32
2022-08-08T13:56:13.168Z,32
2022-08-08T13:57:17.796Z,31
2022-08-08T13:59:24.138Z,31
2022-08-08T14:00:35.534Z,31
2022-08-08T14:02:10.795Z,32
2022-08-08T14:03:58.152Z,32
2022-08-08T14:05:28.079Z,32
2022-08-08T14:06:38.256Z,32
2022-08-08T14:07:51.939Z,32
2022-08-08T14:10:37.341Z,33
2022-08-08T14:11:49.741Z,33
2022-08-08T14:12:52.401Z,33
2022-08-08T14:14:09.235Z,33
2022-08-08T14:15:20.472Z,33
2022-08-08T14:16:27.944Z,33
2022-08-08T14:18:54.172Z,33
2022-08-08T14:20:58.465Z,33
2022-08-08T14:22:05.084Z,33
2022-08-08T14:24:10.133Z,33
2022-08-08T14:25:23.991Z,34
2022-08-08T14:26:34.340Z,34
2022-08-08T14:28:01.378Z,34
2022-08-08T14:29:40.890Z,34
2022-08-08T14:30:51.282Z,34
2022-08-08T14:32:32.096Z,34
2022-08-08T14:33:37.896Z,34
2022-08-08T14:34:46.370Z,34
2022-08-08T14:35:55.768Z,35
2022-08-08T14:36:58.066Z,35
2022-08-08T14:38:51.697Z,35
2022-08-08T14:40:15.507Z,35
2022-08-08T14:41:56.106Z,35
2022-08-08T14:44:19.640Z,35
2022-08-08T14:46:07.261Z,35
2022-08-08T14:47:23.384Z,35
2022-08-08T14:48:39.800Z,35
2022-08-08T14:50:38.994Z,35
2022-08-08T14:51:54.444Z,35
2022-08-08T14:52:58.091Z,34
2022-08-08T14:54:00.446Z,34
2022-08-08T14:55:05.315Z,34
2022-08-08T14:56:11.045Z,34
2022-08-08T14:57:24.159Z,33
2022-08-08T14:59:59.004Z,33
2022-08-08T15:01:37.834Z,33
2022-08-08T15:03:18.547Z,33
2022-08-08T15:04:29.946Z,33
2022-08-08T15:05:59.843Z,34
2022-08-08T15:07:39.833Z,34
2022-08-08T15:08:58.393Z,34
2022-08-08T15:10:01.950Z,34
2022-08-08T15:11:20.464Z,34
2022-08-08T15:12:29.610Z,34
2022-08-08T15:14:04.120Z,34
2022-08-08T15:16:05.165Z,34
2022-08-08T15:17:19.086Z,33
2022-08-08T15:18:31.145Z,33
2022-08-08T15:19:34.265Z,33
2022-08-08T15:20:38.545Z,33
2022-08-08T15:21:44.881Z,33
2022-08-08T15:22:48.031Z,33
2022-08-08T15:23:54.768Z,33
2022-08-08T15:25:01.163Z,34
2022-08-08T15:26:35.374Z,34
2022-08-08T15:28:35.666Z,34
2022-08-08T15:29:39.378Z,34
2022-08-08T15:30:52.287Z,34
2022-08-08T15:32:32.345Z,34
2022-08-08T15:34:00.975Z,35
2022-08-08T15:35:08.311Z,35
2022-08-08T15:36:18.822Z,35
2022-08-08T15:37:34.164Z,36
2022-08-08T15:38:51.133Z,36
2022-08-08T15:39:59.979Z,36
2022-08-08T15:41:04.501Z,36
2022-08-08T15:42:33.410Z,36
2022-08-08T15:44:01.646Z,36
2022-08-08T15:45:17.232Z,36
2022-08-08T15:46:36.581Z,35
2022-08-08T15:47:39.708Z,35
2022-08-08T15:49:30.170Z,35
2022-08-08T15:50:45.722Z,35
2022-08-08T15:51:55.558Z,35
2022-08-08T15:52:58.784Z,35
2022-08-08T15:54:01.540Z,35
2022-08-08T15:55:04.781Z,35
2022-08-08T15:56:20.467Z,35
2022-08-08T15:57:24.757Z,35
2022-08-08T15:58:33.210Z,35
2022-08-08T16:00:29.254Z,35
2022-08-08T16:02:01.927Z,36
2022-08-08T16:03:05.538Z,36
2022-08-08T16:04:15.135Z,36
2022-08-08T16:06:03.809Z,36
2022-08-08T16:07:07.895Z,36
2022-08-08T16:08:20.054Z,36
2022-08-08T16:13:47.017Z,36
2022-08-08T16:14:59.243Z,37
2022-08-08T16:16:22.377Z,37
2022-08-08T16:18:13.109Z,37
2022-08-08T16:19:26.539Z,36
2022-08-08T16:20:31.866Z,36
2022-08-08T16:21:39.105Z,36
2022-08-08T16:22:57.573Z,36
2022-08-08T16:24:00.191Z,36
2022-08-08T16:25:08.033Z,36
2022-08-08T16:26:36.645Z,37
2022-08-08T16:27:58.126Z,37
2022-08-08T16:29:09.495Z,37
2022-08-08T16:30:37.447Z,38
2022-08-08T16:31:50.762Z,38
2022-08-08T16:32:55.050Z,38
2022-08-08T16:34:02.324Z,38
2022-08-08T16:35:07.595Z,38
2022-08-08T16:36:34.489Z,38
2022-08-08T16:37:46.689Z,38
2022-08-08T16:38:57.496Z,38
2022-08-08T16:40:12.566Z,38
2022-08-08T16:41:29.853Z,39
2022-08-08T16:42:41.914Z,39
2022-08-08T16:43:55.447Z,39
2022-08-08T16:46:38.330Z,39
2022-08-08T16:47:48.972Z,40
2022-08-08T16:48:51.866Z,40
2022-08-08T16:49:54.719Z,40
2022-08-08T16:51:08.419Z,40
2022-08-08T16:58:18.210Z,41
2022-08-08T16:59:54.461Z,41
2022-08-08T17:01:06.334Z,41
2022-08-08T17:02:45.829Z,41
2022-08-08T17:04:04.557Z,41
2022-08-08T17:05:07.466Z,42
2022-08-08T17:06:44.403Z,42
2022-08-08T17:07:52.806Z,42
2022-08-08T17:08:54.742Z,42
2022-08-08T17:09:59.933Z,42
2022-08-08T17:11:12.692Z,43
2022-08-08T17:12:31.321Z,42
2022-08-08T17:14:02.599Z,42
2022-08-08T17:15:23.415Z,42
2022-08-08T17:16:29.834Z,42
2022-08-08T17:18:16.450Z,43
2022-08-08T17:19:24.102Z,42
2022-08-08T17:20:29.072Z,42
2022-08-08T17:21:34.347Z,42
2022-08-08T17:22:43.229Z,43
2022-08-08T17:25:03.312Z,43
2022-08-08T17:26:29.746Z,43
2022-08-08T17:27:49.204Z,43
2022-08-08T17:29:15.609Z,43
2022-08-08T17:30:30.132Z,44
2022-08-08T17:31:50.267Z,44
2022-08-08T17:36:31.262Z,44
2022-08-08T17:37:38.306Z,44
2022-08-08T17:38:44.099Z,44
2022-08-08T17:40:16.182Z,44
2022-08-08T17:41:48.461Z,44
2022-08-08T17:43:05.784Z,44
2022-08-08T17:44:17.946Z,44
2022-08-08T17:45:26.839Z,44
2022-08-08T17:46:39.298Z,45
2022-08-08T17:47:51.766Z,45
2022-08-08T17:48:59.100Z,45
2022-08-08T17:50:05.114Z,45
2022-08-08T17:51:08.254Z,45
2022-08-08T17:52:25.844Z,45
2022-08-08T17:53:57.841Z,45
2022-08-08T17:56:09.503Z,45
2022-08-08T17:57:15.765Z,45
2022-08-08T17:58:20.264Z,45
2022-08-08T17:59:46.692Z,46
2022-08-08T18:01:10.885Z,45
2022-08-08T18:02:29.816Z,46
2022-08-08T18:03:34.836Z,46
2022-08-08T18:04:52.055Z,46
2022-08-08T18:05:55.638Z,46
2022-08-08T18:06:58.581Z,46
2022-08-08T18:08:05.582Z,46
2022-08-08T18:09:09.898Z,46
2022-08-08T18:10:18.631Z,46
2022-08-08T18:11:22.893Z,46
2022-08-08T18:12:25.798Z,46
2022-08-08T18:13:43.241Z,46
2022-08-08T18:14:49.895Z,46
2022-08-08T18:16:06.698Z,46
2022-08-08T18:18:31.742Z,46
2022-08-08T18:21:25.349Z,47
2022-08-08T18:23:57.372Z,47
2022-08-08T18:25:06.746Z,47
2022-08-08T18:26:10.676Z,47
2022-08-08T18:27:18.863Z,47
2022-08-08T18:28:27.005Z,47
2022-08-08T18:29:57.311Z,47
2022-08-08T18:31:11.660Z,47
2022-08-08T18:32:15.763Z,47
2022-08-08T18:34:28.928Z,47
2022-08-08T18:35:50.957Z,47
2022-08-08T18:37:33.847Z,47
2022-08-08T18:38:53.071Z,47
2022-08-08T18:39:56.216Z,47
2022-08-08T18:41:01.015Z,47
2022-08-08T18:42:18.116Z,47
2022-08-08T18:43:23.203Z,47
2022-08-08T18:44:58.397Z,47
2022-08-08T18:48:00.339Z,47
2022-08-08T18:49:41.228Z,47
2022-08-08T18:51:55.806Z,47
2022-08-08T18:52:58.876Z,47
2022-08-08T18:54:31.149Z,47
2022-08-08T18:55:35.377Z,47
2022-08-08T18:56:39.412Z,47
2022-08-08T18:57:47.223Z,47
2022-08-08T18:58:51.538Z,47
2022-08-08T18:59:54.330Z,47
2022-08-08T19:00:57.783Z,47
2022-08-08T19:02:31.300Z,47
2022-08-08T19:04:15.632Z,48
2022-08-08T19:05:23.343Z,48
2022-08-08T19:06:55.705Z,48
2022-08-08T19:08:03.001Z,48
2022-08-08T19:09:15.925Z,48
2022-08-08T19:11:27.824Z,48
2022-08-08T19:12:53.729Z,48
2022-08-08T19:13:58.286Z,48
2022-08-08T19:15:01.258Z,48
2022-08-08T19:16:20.263Z,48
2022-08-08T19:19:04.039Z,48
2022-08-08T19:20:19.734Z,48
2022-08-08T19:21:50.470Z,48
2022-08-08T19:22:57.998Z,49
2022-08-08T19:24:00.845Z,48
2022-08-08T19:26:31.946Z,48
2022-08-08T19:28:02.099Z,49
2022-08-08T19:29:23.194Z,49
2022-08-08T19:30:28.437Z,49
2022-08-08T19:31:37.186Z,49
2022-08-08T19:32:41.287Z,49
2022-08-08T19:34:42.039Z,49
2022-08-08T19:36:14.644Z,49
2022-08-08T19:37:47.685Z,49
2022-08-08T19:39:09.966Z,49
2022-08-08T19:40:22.137Z,49
2022-08-08T19:41:36.124Z,48
2022-08-08T19:42:41.821Z,48
2022-08-08T19:44:46.063Z,48
2022-08-08T19:46:22.684Z,48
2022-08-08T19:47:41.266Z,48
2022-08-08T19:48:44.176Z,48
2022-08-08T19:50:03.005Z,48
2022-08-08T19:51:14.373Z,48
2022-08-08T19:53:00.900Z,47
2022-08-08T19:54:03.919Z,48
2022-08-08T19:55:07.381Z,48
2022-08-08T19:56:14.075Z,48
2022-08-08T19:57:52.533Z,47
2022-08-08T19:58:58.659Z,47
2022-08-08T20:00:01.664Z,47
2022-08-08T20:01:21.505Z,47
2022-08-08T20:04:03.978Z,47
2022-08-08T20:05:07.357Z,47
2022-08-08T20:06:18.259Z,47
2022-08-08T20:08:32.818Z,47
2022-08-08T20:09:58.983Z,48
2022-08-08T20:11:02.725Z,48
2022-08-08T20:12:10.504Z,48
2022-08-08T20:14:53.771Z,48
2022-08-08T20:16:03.889Z,48
2022-08-08T20:17:12.181Z,48
2022-08-08T20:18:54.705Z,48
2022-08-08T20:19:59.699Z,49
2022-08-08T20:21:05.960Z,49
2022-08-08T20:22:33.578Z,49
2022-08-08T20:23:41.953Z,49
2022-08-08T20:24:46.260Z,49
2022-08-08T20:25:53.542Z,49